Weather at Chokurdakh Airport

Public forecast

Using degrees Celsius for public forecast. Weather courtesy of forecast.io.

Current aviation weather report (METAR) for Chokurdakh Airport

Report is more than 6 hours old.

Retrieved 2013/07/19 07:30 UTC (8 years ago):

UESO 190730Z VRB02MPS 9999 BKN017 15/12 Q1008 RMK QFE754 SC050

Aviation forecast (TAF) for Chokurdakh Airport

Forecast is more than 12 hours old.

Retrieved 2012/05/29 00:15 UTC (9 years ago):

TAF TAF UESO 292240Z 3000/3109 30007MPS 9999 -RA BKN020 OVC070 TEMPO 3000/3004 4000 -RA BR BKN007 OVC070